Terminal Aerodrome Forecast
Issued by NWS Mt. Holly, NJ

Home | Current Version | Previous Version | Text Only | Print | Product List | Glossary On
Versions: 1 2 3 4 5 6 7 8 9 10 11 12 13 14 15 16 17 18 19 20 21 22 23 24 25 26 27 28 29 30 31 32 33
814
FTUS41 KPHI 210905 AAA
TAFPHL
TAF AMD
KPHL 210905Z 2109/2212 00000KT 3SM BR OVC004
      TEMPO 2109/2113 1SM BR OVC003
     FM211500 22004KT 5SM BR BKN006 OVC015
     FM211700 24006KT P6SM BKN015
     FM220100 VRB03KT 5SM BR OVC002=

USA.gov is the U.S. government's official web portal to all federal, state and local government web resources and services.